createdAt,value
2022-11-23T00:01:36.608Z,14.03
2022-11-23T00:04:07.579Z,16.33
2022-11-23T00:06:36.550Z,23.77
2022-11-23T00:09:05.275Z,22.17
2022-11-23T00:11:36.430Z,25.77
2022-11-23T00:14:04.972Z,21.93
2022-11-23T00:16:33.576Z,24.83
2022-11-23T00:19:02.903Z,23.70
2022-11-23T00:21:32.713Z,21.63
2022-11-23T00:24:01.335Z,17.90
2022-11-23T00:26:29.774Z,24.90
2022-11-23T00:28:59.560Z,28.97
2022-11-23T00:31:29.186Z,20.80
2022-11-23T00:33:58.601Z,22.87
2022-11-23T00:36:28.435Z,25.10
2022-11-23T00:38:57.936Z,26.90
2022-11-23T00:41:28.349Z,25.07
2022-11-23T00:43:56.903Z,30.40
2022-11-23T00:46:28.664Z,29.27
2022-11-23T00:48:58.457Z,29.20
2022-11-23T00:51:29.227Z,25.57
2022-11-23T00:53:58.172Z,27.17
2022-11-23T00:56:27.829Z,25.37
2022-11-23T00:58:58.245Z,26.03
2022-11-23T01:01:30.993Z,25.03
2022-11-23T01:04:00.356Z,22.77
2022-11-23T01:06:32.735Z,24.27
2022-11-23T01:09:03.472Z,22.00
2022-11-23T01:11:33.425Z,19.87
2022-11-23T01:14:02.785Z,23.83
2022-11-23T01:16:34.576Z,21.20
2022-11-23T01:19:05.516Z,19.83
2022-11-23T01:21:35.063Z,20.43
2022-11-23T01:24:06.279Z,26.20
2022-11-23T01:26:35.153Z,22.27
2022-11-23T01:29:03.639Z,25.93
2022-11-23T01:31:33.378Z,18.60
2022-11-23T01:34:03.330Z,28.07
2022-11-23T01:36:34.163Z,22.13
2022-11-23T01:39:03.650Z,25.13
2022-11-23T01:41:34.629Z,27.07
2022-11-23T01:44:18.236Z,23.87
2022-11-23T01:46:48.600Z,18.80
2022-11-23T01:49:17.266Z,13.73
2022-11-23T01:51:49.550Z,19.93
2022-11-23T01:54:22.752Z,22.03
2022-11-23T01:56:56.336Z,15.83
2022-11-23T01:59:26.880Z,15.87
2022-11-23T02:01:57.294Z,18.57
2022-11-23T02:04:30.755Z,25.47
2022-11-23T02:07:02.094Z,24.57
2022-11-23T02:09:33.014Z,23.10
2022-11-23T02:12:01.843Z,12.20
2022-11-23T02:14:30.948Z,27.43
2022-11-23T02:17:01.247Z,23.83
2022-11-23T02:19:41.340Z,18.47
2022-11-23T02:22:15.010Z,15.20
2022-11-23T02:24:50.166Z,14.37
2022-11-23T02:27:21.656Z,20.83
2022-11-23T02:29:53.669Z,12.10
2022-11-23T02:32:24.980Z,19.40
2022-11-23T02:34:57.499Z,14.43
2022-11-23T02:37:26.591Z,13.53
2022-11-23T02:39:58.049Z,12.87
2022-11-23T02:42:29.802Z,11.67
2022-11-23T02:45:06.015Z,25.77
2022-11-23T02:47:34.468Z,15.07
2022-11-23T02:50:02.901Z,12.70
2022-11-23T02:52:31.347Z,14.63
2022-11-23T02:54:59.968Z,14.83
2022-11-23T02:57:29.778Z,22.33
2022-11-23T02:59:58.158Z,13.77
2022-11-23T03:02:26.591Z,18.30
2022-11-23T03:04:55.630Z,15.43
2022-11-23T03:07:24.113Z,13.90
2022-11-23T03:09:52.591Z,14.07
2022-11-23T03:12:21.693Z,18.10
2022-11-23T03:14:51.506Z,16.17
2022-11-23T03:17:20.155Z,17.20
2022-11-23T03:19:48.787Z,10.67
2022-11-23T03:22:17.304Z,20.70
2022-11-23T03:24:45.764Z,19.43
2022-11-23T03:27:17.709Z,15.73
2022-11-23T03:29:47.306Z,11.33
2022-11-23T03:32:21.962Z,12.97
2022-11-23T03:34:54.458Z,19.70
2022-11-23T03:37:24.290Z,12.33
2022-11-23T03:39:53.301Z,14.30
2022-11-23T03:42:41.488Z,10.30
2022-11-23T03:45:11.076Z,10.67
2022-11-23T03:47:41.204Z,12.27
2022-11-23T03:50:10.636Z,11.27
2022-11-23T03:52:39.733Z,12.70
2022-11-23T03:55:09.107Z,11.33
2022-11-23T03:57:37.800Z,13.13
2022-11-23T04:00:09.450Z,9.00
2022-11-23T04:02:43.089Z,9.63
2022-11-23T04:05:31.441Z,10.70
2022-11-23T04:08:24.268Z,16.10
2022-11-23T04:10:57.861Z,12.27
2022-11-23T04:13:36.519Z,8.37
2022-11-23T04:16:07.221Z,16.50
2022-11-23T04:18:37.281Z,12.40
2022-11-23T04:21:06.720Z,11.87
2022-11-23T04:23:35.314Z,11.00
2022-11-23T04:26:06.126Z,9.93
2022-11-23T04:28:35.218Z,5.20
2022-11-23T04:31:04.839Z,11.30
2022-11-23T04:33:43.966Z,6.87
2022-11-23T04:36:12.495Z,10.87
2022-11-23T04:38:41.156Z,9.47
2022-11-23T04:41:10.087Z,10.83
2022-11-23T04:43:40.867Z,10.43
2022-11-23T04:46:10.598Z,9.97
2022-11-23T04:48:39.043Z,20.50
2022-11-23T04:51:09.077Z,18.17
2022-11-23T04:53:40.176Z,12.17
2022-11-23T04:56:08.879Z,11.73
2022-11-23T04:58:40.578Z,13.70
2022-11-23T05:01:09.476Z,7.63
2022-11-23T05:03:48.817Z,14.87
2022-11-23T05:06:18.675Z,15.63
2022-11-23T05:08:47.973Z,7.17
2022-11-23T05:11:43.868Z,12.33
2022-11-23T05:14:12.466Z,9.73
2022-11-23T05:16:41.550Z,11.37
2022-11-23T05:19:10.638Z,15.50
2022-11-23T05:21:40.507Z,13.53
2022-11-23T05:24:09.135Z,12.03
2022-11-23T05:26:42.550Z,9.70
2022-11-23T05:29:10.977Z,13.10
2022-11-23T05:31:39.755Z,13.03
2022-11-23T05:34:08.176Z,12.30
2022-11-23T05:36:46.951Z,11.00
2022-11-23T05:39:16.726Z,7.57
2022-11-23T05:41:46.001Z,15.73
2022-11-23T05:44:31.594Z,13.83
2022-11-23T05:47:00.999Z,9.37
2022-11-23T05:49:33.329Z,8.13
2022-11-23T05:52:05.124Z,21.50
2022-11-23T05:54:35.438Z,12.30
2022-11-23T05:57:09.444Z,11.43
2022-11-23T05:59:40.582Z,10.13
2022-11-23T06:02:12.234Z,17.73
2022-11-23T06:04:40.797Z,13.80
2022-11-23T06:07:14.335Z,18.10
2022-11-23T06:10:08.418Z,7.27
2022-11-23T06:12:40.669Z,10.20
2022-11-23T06:15:14.286Z,7.07
2022-11-23T06:17:42.949Z,13.40
2022-11-23T06:20:16.832Z,12.77
2022-11-23T06:22:54.944Z,18.33
2022-11-23T06:25:25.582Z,13.20
2022-11-23T06:28:11.511Z,9.37
2022-11-23T06:30:46.422Z,16.47
2022-11-23T06:33:15.800Z,9.20
2022-11-23T06:35:56.935Z,12.43
2022-11-23T06:38:30.098Z,8.53
2022-11-23T06:41:05.908Z,8.70
2022-11-23T06:43:34.488Z,8.57
2022-11-23T06:46:05.338Z,11.67
2022-11-23T06:48:35.634Z,14.70
2022-11-23T06:51:05.466Z,6.77
2022-11-23T06:53:35.277Z,11.30
2022-11-23T06:56:07.962Z,13.27
2022-11-23T06:58:37.872Z,12.10
2022-11-23T07:01:11.854Z,6.67
2022-11-23T07:03:49.580Z,14.50
2022-11-23T07:06:30.317Z,9.03
2022-11-23T07:09:03.668Z,7.40
2022-11-23T07:11:51.191Z,7.70
2022-11-23T07:14:20.154Z,5.93
2022-11-23T07:16:51.501Z,8.83
2022-11-23T07:19:20.804Z,13.40
2022-11-23T07:21:51.115Z,9.60
2022-11-23T07:24:21.056Z,10.30
2022-11-23T07:26:49.528Z,12.90
2022-11-23T07:29:18.014Z,10.90
2022-11-23T07:31:47.255Z,11.57
2022-11-23T07:34:16.383Z,18.87
2022-11-23T07:36:45.553Z,6.90
2022-11-23T07:39:14.361Z,8.40
2022-11-23T07:41:44.248Z,9.13
2022-11-23T07:44:22.730Z,7.60
2022-11-23T07:46:54.339Z,6.07
2022-11-23T07:49:22.733Z,12.93
2022-11-23T07:51:51.158Z,9.17
2022-11-23T07:54:23.646Z,9.07
2022-11-23T07:56:53.722Z,12.13
2022-11-23T07:59:22.128Z,11.40
2022-11-23T08:01:54.316Z,11.33
2022-11-23T08:04:26.842Z,15.57
2022-11-23T08:06:55.414Z,12.07
2022-11-23T08:09:24.108Z,11.97
2022-11-23T08:11:54.074Z,11.13
2022-11-23T08:14:23.762Z,14.33
2022-11-23T08:16:53.045Z,12.23
2022-11-23T08:19:21.441Z,11.43
2022-11-23T08:21:49.887Z,14.73
2022-11-23T08:24:18.375Z,11.53
2022-11-23T08:26:46.829Z,8.27
2022-11-23T08:29:16.883Z,12.70
2022-11-23T08:31:45.363Z,6.63
2022-11-23T08:34:14.102Z,14.57
2022-11-23T08:36:42.556Z,17.70
2022-11-23T08:39:11.382Z,14.40
2022-11-23T08:41:40.009Z,9.70
2022-11-23T08:44:10.968Z,4.97
2022-11-23T08:46:40.904Z,13.53
2022-11-23T08:49:09.350Z,3.00
2022-11-23T08:51:37.768Z,13.27
2022-11-23T08:54:06.223Z,7.80
2022-11-23T08:56:34.670Z,7.17
2022-11-23T08:59:03.196Z,11.60
2022-11-23T09:01:31.706Z,7.37
2022-11-23T09:04:01.954Z,12.77
2022-11-23T09:06:30.351Z,5.77
2022-11-23T09:08:58.820Z,8.20
2022-11-23T09:11:27.426Z,13.33
2022-11-23T09:13:55.997Z,10.80
2022-11-23T09:16:24.447Z,15.20
2022-11-23T09:18:56.907Z,16.63
2022-11-23T09:21:30.754Z,10.87
2022-11-23T09:23:59.271Z,11.93
2022-11-23T09:26:27.715Z,11.30
2022-11-23T09:28:56.161Z,12.93
2022-11-23T09:31:26.809Z,8.77
2022-11-23T09:33:55.337Z,8.50
2022-11-23T09:36:24.105Z,12.30
2022-11-23T09:38:57.032Z,14.80
2022-11-23T09:41:52.982Z,8.67
2022-11-23T09:44:28.681Z,8.20
2022-11-23T09:47:12.270Z,13.30
2022-11-23T09:49:51.047Z,7.40
2022-11-23T09:52:22.158Z,9.17
2022-11-23T09:54:56.534Z,14.43
2022-11-23T09:57:31.663Z,10.80
2022-11-23T10:00:02.989Z,17.47
2022-11-23T10:02:37.847Z,13.87
2022-11-23T10:05:08.127Z,8.47
2022-11-23T10:07:48.221Z,8.37
2022-11-23T10:10:33.270Z,3.83
2022-11-23T10:13:09.806Z,8.73
2022-11-23T10:15:46.666Z,10.37
2022-11-23T10:18:29.136Z,11.43
2022-11-23T10:21:04.966Z,4.77
2022-11-23T10:23:53.574Z,7.33
2022-11-23T10:26:29.078Z,12.50
2022-11-23T10:29:00.755Z,5.23
2022-11-23T10:31:31.346Z,5.90
2022-11-23T10:34:05.480Z,4.67
2022-11-23T10:36:36.502Z,7.43
2022-11-23T10:39:16.106Z,5.93
2022-11-23T10:41:47.343Z,8.10
2022-11-23T10:44:31.362Z,8.37
2022-11-23T10:47:00.524Z,6.40
2022-11-23T10:49:30.759Z,6.63
2022-11-23T10:52:00.474Z,9.00
2022-11-23T10:54:32.774Z,7.37
2022-11-23T10:57:20.958Z,8.67
2022-11-23T11:00:00.014Z,10.50
2022-11-23T11:02:29.155Z,5.67
2022-11-23T11:05:35.482Z,11.13
2022-11-23T11:08:15.973Z,5.77
2022-11-23T11:10:49.934Z,6.53
2022-11-23T11:13:29.824Z,10.37
2022-11-23T11:16:00.722Z,10.63
2022-11-23T11:18:32.882Z,10.90
2022-11-23T11:21:04.978Z,7.03
2022-11-23T11:23:34.850Z,8.87
2022-11-23T11:26:18.030Z,9.23
2022-11-23T11:28:50.392Z,3.10
2022-11-23T11:31:43.285Z,6.73
2022-11-23T11:34:23.073Z,4.63
2022-11-23T11:36:58.710Z,14.00
2022-11-23T11:39:33.360Z,4.97
2022-11-23T11:42:05.926Z,12.53
2022-11-23T11:44:40.007Z,8.57
2022-11-23T11:47:29.089Z,8.33
2022-11-23T11:50:01.844Z,6.90
2022-11-23T11:52:36.670Z,4.87
2022-11-23T11:55:12.278Z,2.83
2022-11-23T11:57:46.965Z,3.23
2022-11-23T12:00:19.797Z,9.17
2022-11-23T12:02:56.725Z,3.53
2022-11-23T12:05:27.992Z,9.47
2022-11-23T12:08:04.143Z,3.77
2022-11-23T12:10:40.598Z,5.97
2022-11-23T12:13:14.246Z,6.60
2022-11-23T12:15:50.136Z,9.40
2022-11-23T12:19:01.106Z,8.10
2022-11-23T12:22:11.261Z,7.07
2022-11-23T12:25:10.905Z,4.17
2022-11-23T12:27:49.862Z,4.67
2022-11-23T12:30:25.640Z,5.87
2022-11-23T12:33:12.299Z,9.57
2022-11-23T12:35:55.094Z,5.37
2022-11-23T12:38:32.102Z,3.23
2022-11-23T12:41:27.272Z,3.13
2022-11-23T12:44:14.260Z,5.30
2022-11-23T12:46:50.509Z,2.63
2022-11-23T12:49:38.797Z,5.13
2022-11-23T12:52:29.854Z,5.13
2022-11-23T12:55:19.246Z,4.43
2022-11-23T12:57:54.139Z,4.93
2022-11-23T13:00:23.911Z,4.73
2022-11-23T13:03:48.238Z,5.77
2022-11-23T13:06:59.326Z,6.03
2022-11-23T13:09:56.370Z,6.77
2022-11-23T13:12:42.522Z,7.43
2022-11-23T13:15:27.252Z,10.53
2022-11-23T13:18:01.266Z,9.00
2022-11-23T13:20:44.893Z,5.97
2022-11-23T13:23:15.002Z,5.37
2022-11-23T13:25:43.466Z,7.40
2022-11-23T13:28:30.810Z,9.33
2022-11-23T13:31:35.981Z,6.07
2022-11-23T13:34:28.043Z,5.67
2022-11-23T13:37:18.340Z,3.03
2022-11-23T13:42:40.014Z,4.73
2022-11-23T13:45:30.694Z,6.73
2022-11-23T13:48:34.255Z,11.60
2022-11-23T13:51:02.295Z,11.27
2022-11-23T13:53:34.137Z,6.67
2022-11-23T13:56:24.303Z,15.20
2022-11-23T13:58:56.086Z,12.13
2022-11-23T14:02:16.530Z,5.80
2022-11-23T14:04:46.805Z,8.80
2022-11-23T14:07:18.916Z,5.67
2022-11-23T14:09:52.940Z,2.23
2022-11-23T14:12:33.470Z,6.80
2022-11-23T14:15:12.529Z,5.50
2022-11-23T14:18:08.482Z,7.57
2022-11-23T14:21:06.807Z,10.40
2022-11-23T14:24:14.156Z,4.33
2022-11-23T14:26:52.954Z,8.47
2022-11-23T14:29:30.075Z,6.53
2022-11-23T14:32:24.767Z,7.40
2022-11-23T14:35:05.607Z,11.93
2022-11-23T14:37:43.912Z,4.03
2022-11-23T14:40:20.257Z,4.50
2022-11-23T14:42:54.190Z,2.80
2022-11-23T14:45:25.652Z,6.27
2022-11-23T14:47:55.498Z,5.23
2022-11-23T14:50:26.741Z,6.10
2022-11-23T14:52:57.546Z,4.07
2022-11-23T14:55:28.166Z,9.33
2022-11-23T14:58:00.592Z,6.33
2022-11-23T15:00:36.479Z,2.70
2022-11-23T15:03:48.288Z,5.60
2022-11-23T15:06:09.975Z,5.10
2022-11-23T15:08:46.754Z,8.80
2022-11-23T15:11:21.134Z,7.13
2022-11-23T15:13:51.455Z,5.83
2022-11-23T15:16:22.280Z,6.43
2022-11-23T15:18:52.975Z,3.07
2022-11-23T15:21:27.716Z,10.13
2022-11-23T15:23:59.976Z,5.47
2022-11-23T15:29:33.076Z,10.00
2022-11-23T15:34:54.718Z,4.90
2022-11-23T15:37:23.850Z,3.17
2022-11-23T15:39:53.318Z,6.47
2022-11-23T15:42:24.722Z,2.77
2022-11-23T15:44:56.516Z,3.87
2022-11-23T15:47:28.274Z,5.47
2022-11-23T15:50:02.411Z,4.40
2022-11-23T15:52:35.529Z,4.57
2022-11-23T15:55:09.655Z,5.97
2022-11-23T15:57:41.022Z,11.23
2022-11-23T16:00:22.185Z,10.87
2022-11-23T16:02:50.971Z,8.00
2022-11-23T16:05:23.576Z,5.73
2022-11-23T16:07:54.458Z,3.63
2022-11-23T16:10:25.853Z,4.70
2022-11-23T16:12:55.658Z,4.27
2022-11-23T16:15:41.519Z,10.47
2022-11-23T16:18:23.173Z,5.40
2022-11-23T16:20:56.295Z,4.70
2022-11-23T16:23:27.985Z,4.47
2022-11-23T16:25:59.149Z,4.97
2022-11-23T16:28:32.330Z,3.53
2022-11-23T16:31:01.959Z,3.33
2022-11-23T16:33:31.219Z,3.40
2022-11-23T16:36:01.017Z,5.80
2022-11-23T16:38:29.606Z,3.80
2022-11-23T16:40:58.041Z,4.43
2022-11-23T16:43:26.562Z,8.03
2022-11-23T16:45:55.771Z,14.40
2022-11-23T16:48:41.638Z,4.53
2022-11-23T16:51:14.524Z,7.00
2022-11-23T16:54:11.905Z,7.90
2022-11-23T16:56:33.090Z,5.90
2022-11-23T16:59:01.766Z,6.07
2022-11-23T17:01:32.496Z,7.90
2022-11-23T17:04:01.249Z,6.77
2022-11-23T17:06:31.116Z,11.00
2022-11-23T17:09:06.414Z,6.80
2022-11-23T17:11:39.572Z,6.47
2022-11-23T17:14:08.523Z,10.63
2022-11-23T17:16:37.111Z,5.17
2022-11-23T17:19:07.036Z,6.60
2022-11-23T17:21:36.808Z,6.73
2022-11-23T17:24:05.885Z,7.20
2022-11-23T17:26:37.218Z,10.23
2022-11-23T17:29:08.140Z,7.67
2022-11-23T17:31:36.575Z,10.03
2022-11-23T17:34:04.979Z,12.27
2022-11-23T17:36:33.495Z,7.97
2022-11-23T17:39:03.380Z,6.47
2022-11-23T17:41:31.858Z,6.00
2022-11-23T17:44:00.304Z,10.83
2022-11-23T17:46:31.556Z,7.93
2022-11-23T17:49:02.328Z,9.10
2022-11-23T17:51:31.222Z,7.07
2022-11-23T17:53:59.664Z,8.93
2022-11-23T17:56:29.449Z,11.50
2022-11-23T17:58:58.016Z,10.00
2022-11-23T18:01:26.479Z,7.77
2022-11-23T18:03:56.289Z,10.97
2022-11-23T18:06:25.647Z,18.03
2022-11-23T18:08:54.256Z,9.63
2022-11-23T18:11:23.217Z,11.33
2022-11-23T18:13:53.440Z,12.47
2022-11-23T18:16:23.220Z,17.13
2022-11-23T18:18:52.037Z,27.90
2022-11-23T18:21:20.537Z,12.43
2022-11-23T18:23:48.944Z,20.80
2022-11-23T18:26:20.802Z,15.37
2022-11-23T18:28:50.512Z,15.17
2022-11-23T18:31:20.870Z,12.40
2022-11-23T18:33:49.356Z,21.27
2022-11-23T18:36:17.940Z,21.90
2022-11-23T18:38:46.746Z,13.50
2022-11-23T18:41:17.088Z,14.03
2022-11-23T18:43:45.979Z,20.37
2022-11-23T18:46:19.040Z,16.30
2022-11-23T18:48:50.360Z,13.10
2022-11-23T18:51:19.796Z,15.97
2022-11-23T18:53:49.900Z,20.40
2022-11-23T18:56:19.254Z,22.30
2022-11-23T18:58:47.956Z,18.93
2022-11-23T19:01:18.677Z,13.47
2022-11-23T19:03:50.573Z,17.27
2022-11-23T19:06:21.014Z,18.87
2022-11-23T19:08:50.807Z,18.83
2022-11-23T19:11:21.161Z,21.47
2022-11-23T19:13:53.197Z,14.13
2022-11-23T19:16:23.857Z,14.10
2022-11-23T19:18:56.967Z,15.43
2022-11-23T19:21:26.946Z,14.13
2022-11-23T19:23:57.095Z,12.50
2022-11-23T19:26:26.663Z,16.63
2022-11-23T19:28:55.871Z,13.27
2022-11-23T19:31:26.609Z,13.97
2022-11-23T19:34:00.567Z,18.00
2022-11-23T19:36:30.942Z,16.27
2022-11-23T19:39:00.542Z,18.60
2022-11-23T19:41:30.652Z,31.37
2022-11-23T19:44:00.564Z,47.40
2022-11-23T19:46:29.903Z,14.60
2022-11-23T19:49:00.108Z,24.17
2022-11-23T19:51:29.339Z,17.50
2022-11-23T19:53:58.186Z,19.97
2022-11-23T19:56:28.962Z,12.70
2022-11-23T19:58:58.987Z,17.50
2022-11-23T20:01:29.379Z,14.03
2022-11-23T20:04:07.915Z,14.23
2022-11-23T20:06:38.978Z,17.23
2022-11-23T20:09:09.502Z,22.70
2022-11-23T20:11:40.301Z,13.53
2022-11-23T20:14:11.246Z,13.93
2022-11-23T20:16:40.340Z,17.33
2022-11-23T20:19:10.572Z,12.10
2022-11-23T20:21:39.465Z,23.33
2022-11-23T20:24:11.598Z,14.67
2022-11-23T20:26:41.844Z,11.10
2022-11-23T20:29:10.852Z,18.10
2022-11-23T20:31:39.680Z,10.40
2022-11-23T20:34:10.632Z,17.13
2022-11-23T20:36:43.205Z,14.73
2022-11-23T20:39:12.437Z,9.07
2022-11-23T20:41:40.931Z,21.07
2022-11-23T20:44:12.803Z,10.73
2022-11-23T20:49:30.938Z,23.30
2022-11-23T20:52:01.675Z,17.63
2022-11-23T20:54:30.215Z,12.70
2022-11-23T20:57:00.108Z,21.37
2022-11-23T20:59:29.158Z,20.00
2022-11-23T21:01:57.727Z,11.63
2022-11-23T21:04:26.764Z,13.70
2022-11-23T21:06:55.579Z,15.33
2022-11-23T21:09:25.338Z,13.30
2022-11-23T21:12:11.189Z,15.77
2022-11-23T21:14:39.725Z,22.60
2022-11-23T21:17:08.160Z,16.33
2022-11-23T21:19:39.160Z,20.57
2022-11-23T21:22:09.570Z,15.77
2022-11-23T21:24:39.599Z,17.40
2022-11-23T21:27:11.898Z,12.60
2022-11-23T21:29:40.756Z,9.10
2022-11-23T21:32:09.185Z,14.90
2022-11-23T21:34:37.854Z,12.77
2022-11-23T21:37:06.502Z,16.37
2022-11-23T21:39:34.946Z,16.67
2022-11-23T21:42:04.776Z,22.33
2022-11-23T21:44:33.608Z,19.17
2022-11-23T21:47:02.211Z,14.53
2022-11-23T21:49:30.811Z,25.07
2022-11-23T21:51:59.277Z,12.30
2022-11-23T21:54:27.817Z,22.60
2022-11-23T21:56:56.316Z,25.13
2022-11-23T21:59:26.121Z,14.43
2022-11-23T22:01:58.563Z,18.70
2022-11-23T22:04:27.446Z,29.77
2022-11-23T22:06:55.895Z,28.10
2022-11-23T22:09:24.442Z,30.77
2022-11-23T22:11:52.907Z,26.70
2022-11-23T22:14:22.008Z,19.27
2022-11-23T22:16:53.672Z,27.67
2022-11-23T22:19:22.103Z,32.53
2022-11-23T22:21:50.565Z,31.00
2022-11-23T22:24:21.098Z,25.63
2022-11-23T22:26:49.793Z,23.13
2022-11-23T22:29:18.274Z,12.37
2022-11-23T22:31:46.877Z,24.07
2022-11-23T22:34:16.800Z,22.83
2022-11-23T22:36:45.188Z,21.73
2022-11-23T22:39:13.606Z,17.93
2022-11-23T22:41:42.119Z,26.33
2022-11-23T22:44:11.599Z,27.63
2022-11-23T22:46:40.682Z,14.27
2022-11-23T22:49:09.083Z,29.60
2022-11-23T22:51:38.893Z,25.97
2022-11-23T22:54:07.357Z,24.80
2022-11-23T22:56:35.763Z,33.90
2022-11-23T22:59:04.475Z,16.20
2022-11-23T23:01:33.138Z,23.23
2022-11-23T23:04:02.939Z,19.03
2022-11-23T23:06:33.980Z,19.53
2022-11-23T23:09:06.450Z,27.10
2022-11-23T23:11:36.326Z,27.73
2022-11-23T23:14:05.158Z,24.83
2022-11-23T23:16:33.739Z,18.27
2022-11-23T23:19:03.390Z,32.67
2022-11-23T23:21:31.824Z,17.73
2022-11-23T23:24:01.399Z,22.43
2022-11-23T23:26:31.350Z,14.80
2022-11-23T23:29:00.972Z,17.93
2022-11-23T23:31:30.663Z,24.20
2022-11-23T23:34:00.640Z,14.03
2022-11-23T23:36:29.667Z,31.10
2022-11-23T23:38:58.569Z,22.90
2022-11-23T23:41:27.044Z,19.67
2022-11-23T23:43:56.970Z,27.23
2022-11-23T23:46:25.702Z,18.37
2022-11-23T23:48:54.106Z,22.87
2022-11-23T23:51:24.227Z,36.23
2022-11-23T23:53:53.297Z,20.47
2022-11-23T23:56:23.413Z,31.17
2022-11-23T23:58:52.173Z,24.47
